createdAt,value
2019-06-27T00:01:39.925Z,34.80
2019-06-27T00:04:07.482Z,33.75
2019-06-27T00:06:34.910Z,30.67
2019-06-27T00:09:02.518Z,30.05
2019-06-27T00:11:30.006Z,30.15
2019-06-27T00:13:57.896Z,32.20
2019-06-27T00:16:25.508Z,36.80
2019-06-27T00:18:53.096Z,30.90
2019-06-27T00:21:20.546Z,28.02
2019-06-27T00:23:48.170Z,27.35
2019-06-27T00:26:15.599Z,25.30
2019-06-27T00:28:43.022Z,26.15
2019-06-27T00:31:10.430Z,29.37
2019-06-27T00:33:37.846Z,32.58
2019-06-27T00:36:05.340Z,30.90
2019-06-27T00:38:32.864Z,23.60
2019-06-27T00:41:00.303Z,32.08
2019-06-27T00:43:27.746Z,28.98
2019-06-27T00:45:55.142Z,26.58
2019-06-27T00:48:22.621Z,25.52
2019-06-27T00:50:50.319Z,23.80
2019-06-27T00:53:18.086Z,24.37
2019-06-27T00:55:45.581Z,33.80
2019-06-27T00:58:13.739Z,30.15
2019-06-27T01:00:41.169Z,29.73
2019-06-27T01:03:08.619Z,28.33
2019-06-27T01:05:36.362Z,31.05
2019-06-27T01:08:03.870Z,30.92
2019-06-27T01:10:31.300Z,42.22
2019-06-27T01:12:58.729Z,24.37
2019-06-27T01:15:26.183Z,30.00
2019-06-27T01:17:53.616Z,28.45
2019-06-27T01:20:21.076Z,28.48
2019-06-27T01:22:48.884Z,28.77
2019-06-27T01:25:16.330Z,28.35
2019-06-27T01:27:43.776Z,31.08
2019-06-27T01:30:11.189Z,26.95
2019-06-27T01:32:38.863Z,34.33
2019-06-27T01:35:06.294Z,28.27
2019-06-27T01:37:33.765Z,26.17
2019-06-27T01:40:01.204Z,28.30
2019-06-27T01:42:28.667Z,33.60
2019-06-27T01:44:56.878Z,23.38
2019-06-27T01:47:25.140Z,28.48
2019-06-27T01:49:52.570Z,25.37
2019-06-27T01:52:20.023Z,25.42
2019-06-27T01:54:47.446Z,26.77
2019-06-27T01:57:15.188Z,27.67
2019-06-27T01:59:42.711Z,33.03
2019-06-27T02:02:10.175Z,28.33
2019-06-27T02:04:38.016Z,29.10
2019-06-27T02:07:05.700Z,29.52
2019-06-27T02:09:33.628Z,25.15
2019-06-27T02:12:00.736Z,26.42
2019-06-27T02:14:28.184Z,23.30
2019-06-27T02:16:55.885Z,27.50
2019-06-27T02:19:23.922Z,23.52
2019-06-27T02:21:51.374Z,28.45
2019-06-27T02:24:19.416Z,33.40
2019-06-27T02:26:47.123Z,23.77
2019-06-27T02:29:14.555Z,26.02
2019-06-27T02:31:42.032Z,24.80
2019-06-27T02:34:09.504Z,27.25
2019-06-27T02:36:37.167Z,25.50
2019-06-27T02:39:04.590Z,29.80
2019-06-27T02:41:32.295Z,24.35
2019-06-27T02:43:59.730Z,21.87
2019-06-27T02:46:27.420Z,26.23
2019-06-27T02:48:54.856Z,21.40
2019-06-27T02:51:22.319Z,24.08
2019-06-27T02:53:49.756Z,27.60
2019-06-27T02:56:17.405Z,27.95
2019-06-27T02:58:45.560Z,23.48
2019-06-27T03:01:12.981Z,30.88
2019-06-27T03:03:41.735Z,29.50
2019-06-27T03:06:09.211Z,26.02
2019-06-27T03:08:36.668Z,26.12
2019-06-27T03:11:04.849Z,27.45
2019-06-27T03:13:32.289Z,31.12
2019-06-27T03:16:00.035Z,28.08
2019-06-27T03:18:27.615Z,27.00
2019-06-27T03:20:55.072Z,31.42
2019-06-27T03:23:22.500Z,29.98
2019-06-27T03:25:50.359Z,26.30
2019-06-27T03:28:17.847Z,29.08
2019-06-27T03:30:45.533Z,31.45
2019-06-27T03:33:12.964Z,27.27
2019-06-27T03:35:40.446Z,38.35
2019-06-27T03:38:07.816Z,33.83
2019-06-27T03:40:35.306Z,25.10
2019-06-27T03:43:02.759Z,28.65
2019-06-27T03:45:30.675Z,31.60
2019-06-27T03:47:58.320Z,27.52
2019-06-27T03:50:25.997Z,27.35
2019-06-27T03:52:53.423Z,23.98
2019-06-27T03:55:20.953Z,25.33
2019-06-27T03:57:48.373Z,33.35
2019-06-27T04:00:20.493Z,18.10
2019-06-27T04:02:47.923Z,26.33
2019-06-27T04:09:50.573Z,27.27
2019-06-27T04:12:18.022Z,30.95
2019-06-27T04:14:45.468Z,26.45
2019-06-27T04:17:12.918Z,32.03
2019-06-27T04:19:40.376Z,22.35
2019-06-27T04:22:08.295Z,38.03
2019-06-27T04:24:35.715Z,25.23
2019-06-27T04:27:03.317Z,24.80
2019-06-27T04:29:33.903Z,37.92
2019-06-27T04:31:58.243Z,28.85
2019-06-27T04:34:25.673Z,35.45
2019-06-27T04:36:53.798Z,30.15
2019-06-27T04:39:21.865Z,23.27
2019-06-27T04:41:50.249Z,30.98
2019-06-27T04:44:17.694Z,29.83
2019-06-27T04:46:45.421Z,21.23
2019-06-27T04:49:13.743Z,30.20
2019-06-27T04:51:40.347Z,25.15
2019-06-27T04:54:07.853Z,24.75
2019-06-27T04:56:35.338Z,25.45
2019-06-27T04:59:02.812Z,25.35
2019-06-27T05:01:30.589Z,23.85
2019-06-27T05:03:58.138Z,26.42
2019-06-27T05:06:26.520Z,30.83
2019-06-27T05:08:53.932Z,23.80
2019-06-27T05:11:22.058Z,24.17
2019-06-27T05:13:49.479Z,22.83
2019-06-27T05:16:17.070Z,23.85
2019-06-27T05:18:44.516Z,28.77
2019-06-27T05:21:12.284Z,29.12
2019-06-27T05:23:39.927Z,37.55
2019-06-27T05:26:07.547Z,28.67
2019-06-27T05:28:35.083Z,25.45
2019-06-27T05:31:02.550Z,27.23
2019-06-27T05:33:29.998Z,29.98
2019-06-27T05:35:57.916Z,40.33
2019-06-27T05:38:25.442Z,39.28
2019-06-27T05:40:52.930Z,25.45
2019-06-27T05:43:20.326Z,31.12
2019-06-27T05:45:48.174Z,38.28
2019-06-27T05:48:15.592Z,34.70
2019-06-27T05:50:43.098Z,31.00
2019-06-27T05:53:10.578Z,27.58
2019-06-27T05:55:38.519Z,40.45
2019-06-27T05:58:06.010Z,31.17
2019-06-27T06:00:33.555Z,34.17
2019-06-27T06:03:01.007Z,25.67
2019-06-27T06:05:28.553Z,31.40
2019-06-27T06:07:56.088Z,29.65
2019-06-27T06:10:24.358Z,35.13
2019-06-27T06:12:51.777Z,39.63
2019-06-27T06:15:19.754Z,39.63
2019-06-27T06:20:14.367Z,27.13
2019-06-27T06:22:41.776Z,24.37
2019-06-27T06:25:09.645Z,35.55
2019-06-27T06:27:37.102Z,31.52
2019-06-27T06:30:04.561Z,34.72
2019-06-27T06:32:32.042Z,35.70
2019-06-27T06:35:00.237Z,32.58
2019-06-27T06:37:27.650Z,40.22
2019-06-27T06:39:55.161Z,26.98
2019-06-27T06:42:22.604Z,36.97
2019-06-27T06:44:50.179Z,30.55
2019-06-27T06:47:17.893Z,40.30
2019-06-27T06:49:45.482Z,33.63
2019-06-27T06:52:12.933Z,37.17
2019-06-27T06:54:40.572Z,54.85
2019-06-27T06:57:08.006Z,37.90
2019-06-27T06:59:36.340Z,40.67
2019-06-27T07:02:03.760Z,38.58
2019-06-27T07:04:31.545Z,29.33
2019-06-27T07:06:59.166Z,28.17
2019-06-27T07:09:26.775Z,36.63
2019-06-27T07:11:54.353Z,32.25
2019-06-27T07:14:22.461Z,33.95
2019-06-27T07:16:49.885Z,35.25
2019-06-27T07:19:17.627Z,34.20
2019-06-27T07:21:45.081Z,30.80
2019-06-27T07:24:12.663Z,33.03
2019-06-27T07:26:40.227Z,40.20
2019-06-27T07:29:08.435Z,31.45
2019-06-27T07:31:35.851Z,35.00
2019-06-27T07:34:03.337Z,44.00
2019-06-27T07:36:30.776Z,41.78
2019-06-27T07:38:58.200Z,34.42
2019-06-27T07:41:25.742Z,38.85
2019-06-27T07:43:53.633Z,33.10
2019-06-27T07:46:25.522Z,39.20
2019-06-27T07:48:50.081Z,48.10
2019-06-27T07:53:44.717Z,39.42
2019-06-27T07:56:12.138Z,43.45
2019-06-27T07:58:39.662Z,31.83
2019-06-27T08:01:07.121Z,36.45
2019-06-27T08:03:35.010Z,31.10
2019-06-27T08:06:02.569Z,30.92
2019-06-27T08:08:31.085Z,31.85
2019-06-27T08:10:58.607Z,36.15
2019-06-27T08:13:26.039Z,45.80
2019-06-27T08:15:53.617Z,28.75
2019-06-27T08:18:21.093Z,29.50
2019-06-27T08:20:48.514Z,31.92
2019-06-27T08:23:16.543Z,31.37
2019-06-27T08:25:43.982Z,34.88
2019-06-27T08:28:11.431Z,115.43
2019-06-27T08:30:38.839Z,32.03
2019-06-27T08:33:06.508Z,32.40
2019-06-27T08:35:33.989Z,23.48
2019-06-27T08:38:01.485Z,35.15
2019-06-27T08:40:28.914Z,31.98
2019-06-27T08:42:56.476Z,47.22
2019-06-27T08:45:24.666Z,31.25
2019-06-27T08:47:52.201Z,23.40
2019-06-27T08:50:19.746Z,27.20
2019-06-27T08:52:47.197Z,23.90
2019-06-27T08:55:14.693Z,27.62
2019-06-27T08:57:42.323Z,36.42
2019-06-27T09:00:10.599Z,44.63
2019-06-27T09:02:38.079Z,44.63
2019-06-27T09:05:06.681Z,32.70
2019-06-27T09:07:34.151Z,34.13
2019-06-27T09:10:01.604Z,33.13
2019-06-27T09:12:29.658Z,30.35
2019-06-27T09:14:57.139Z,30.40
2019-06-27T09:17:24.690Z,23.77
2019-06-27T09:19:52.118Z,37.90
2019-06-27T09:22:19.717Z,23.55
2019-06-27T09:24:47.249Z,40.63
2019-06-27T09:27:16.146Z,32.20
2019-06-27T09:29:43.636Z,24.10
2019-06-27T09:32:24.094Z,26.95
2019-06-27T09:34:39.952Z,28.17
2019-06-27T09:37:07.353Z,26.02
2019-06-27T09:39:34.815Z,35.75
2019-06-27T09:42:02.279Z,31.02
2019-06-27T09:44:30.078Z,45.63
2019-06-27T09:46:57.864Z,33.60
2019-06-27T09:49:25.413Z,38.83
2019-06-27T09:51:52.908Z,37.15
2019-06-27T09:54:20.318Z,36.95
2019-06-27T09:56:49.267Z,39.35
2019-06-27T09:59:16.910Z,39.25
2019-06-27T10:01:44.741Z,35.63
2019-06-27T10:04:12.231Z,38.13
2019-06-27T10:06:39.823Z,35.15
2019-06-27T10:09:07.419Z,30.45
2019-06-27T10:11:34.926Z,36.47
2019-06-27T10:14:02.395Z,36.72
2019-06-27T10:16:29.945Z,35.15
2019-06-27T10:18:57.383Z,34.65
2019-06-27T10:21:25.129Z,32.20
2019-06-27T10:23:52.565Z,31.90
2019-06-27T10:26:20.342Z,40.08
2019-06-27T10:28:47.874Z,33.33
2019-06-27T10:31:16.289Z,33.10
2019-06-27T10:33:43.904Z,34.83
2019-06-27T10:36:11.274Z,41.40
2019-06-27T10:38:38.706Z,36.55
2019-06-27T10:41:06.564Z,35.05
2019-06-27T10:43:33.983Z,37.35
2019-06-27T10:46:02.279Z,37.25
2019-06-27T10:48:29.691Z,34.63
2019-06-27T10:50:57.385Z,37.03
2019-06-27T10:53:24.868Z,37.20
2019-06-27T10:55:52.736Z,32.50
2019-06-27T10:58:20.210Z,31.62
2019-06-27T11:00:47.885Z,40.72
2019-06-27T11:03:16.519Z,38.47
2019-06-27T11:05:43.051Z,38.90
2019-06-27T11:08:11.220Z,40.90
2019-06-27T11:10:38.699Z,44.85
2019-06-27T11:13:06.149Z,30.30
2019-06-27T11:15:33.726Z,33.20
2019-06-27T11:18:01.660Z,35.08
2019-06-27T11:20:29.233Z,42.92
2019-06-27T11:22:56.878Z,32.85
2019-06-27T11:25:24.450Z,33.80
2019-06-27T11:27:51.872Z,37.13
2019-06-27T11:30:19.575Z,32.50
2019-06-27T11:32:47.154Z,34.42
2019-06-27T11:35:15.148Z,46.65
2019-06-27T11:37:42.814Z,52.00
2019-06-27T11:40:12.303Z,41.55
2019-06-27T11:42:37.807Z,38.33
2019-06-27T11:45:05.270Z,40.45
2019-06-27T11:47:34.523Z,40.00
2019-06-27T11:50:00.882Z,43.38
2019-06-27T11:52:28.401Z,38.70
2019-06-27T11:54:55.839Z,38.63
2019-06-27T11:57:23.397Z,39.78
2019-06-27T11:59:51.103Z,36.60
2019-06-27T12:02:18.665Z,43.40
2019-06-27T12:04:46.380Z,33.20
2019-06-27T12:07:13.800Z,34.78
2019-06-27T12:09:41.386Z,35.25
2019-06-27T12:12:08.834Z,37.40
2019-06-27T12:14:36.271Z,34.88
2019-06-27T12:17:03.939Z,29.90
2019-06-27T12:19:31.437Z,34.50
2019-06-27T12:21:58.856Z,36.85
2019-06-27T12:24:27.161Z,29.90
2019-06-27T12:26:54.767Z,37.42
2019-06-27T12:29:22.351Z,40.65
2019-06-27T12:31:51.776Z,39.45
2019-06-27T12:34:17.421Z,32.60
2019-06-27T12:36:44.899Z,40.08
2019-06-27T12:39:12.484Z,34.38
2019-06-27T12:41:40.074Z,41.75
2019-06-27T12:44:07.453Z,39.17
2019-06-27T12:46:34.915Z,34.78
2019-06-27T12:49:02.523Z,38.72
2019-06-27T12:51:29.969Z,38.03
2019-06-27T12:53:57.630Z,49.55
2019-06-27T12:56:25.184Z,36.80
2019-06-27T12:58:53.005Z,31.83
2019-06-27T13:01:20.467Z,37.65
2019-06-27T13:03:47.982Z,33.97
2019-06-27T13:06:15.427Z,32.10
2019-06-27T13:08:42.930Z,43.22
2019-06-27T13:11:10.452Z,54.25
2019-06-27T13:13:38.055Z,41.35
2019-06-27T13:16:05.489Z,44.97
2019-06-27T13:18:33.313Z,38.80
2019-06-27T13:21:00.734Z,44.33
2019-06-27T13:23:28.275Z,53.50
2019-06-27T13:25:55.859Z,44.20
2019-06-27T13:28:24.173Z,37.10
2019-06-27T13:30:51.663Z,40.10
2019-06-27T13:33:19.220Z,45.60
2019-06-27T13:35:49.113Z,43.23
2019-06-27T13:38:14.486Z,39.92
2019-06-27T13:40:41.979Z,46.30
2019-06-27T13:43:09.481Z,41.37
2019-06-27T13:45:36.943Z,51.13
2019-06-27T13:48:04.507Z,54.13
2019-06-27T13:50:31.915Z,49.60
2019-06-27T13:52:59.578Z,50.93
2019-06-27T13:55:27.049Z,50.38
2019-06-27T13:57:57.519Z,45.53
2019-06-27T14:00:43.152Z,66.23
2019-06-27T14:03:10.603Z,55.58
2019-06-27T14:05:38.034Z,53.40
2019-06-27T14:08:05.436Z,62.47
2019-06-27T14:10:32.915Z,51.30
2019-06-27T14:13:00.635Z,56.17
2019-06-27T14:15:28.165Z,49.30
2019-06-27T14:17:55.742Z,51.73
2019-06-27T14:20:24.031Z,56.67
2019-06-27T14:22:51.443Z,59.45
2019-06-27T14:25:18.888Z,54.10
2019-06-27T14:27:46.311Z,55.97
2019-06-27T14:30:13.722Z,58.17
2019-06-27T14:32:41.320Z,58.70
2019-06-27T14:35:15.146Z,53.57
2019-06-27T14:37:36.666Z,44.97
2019-06-27T14:40:05.921Z,48.20
2019-06-27T14:42:34.219Z,57.50
2019-06-27T14:45:01.765Z,53.27
2019-06-27T14:47:29.339Z,44.87
2019-06-27T14:49:56.774Z,51.00
2019-06-27T14:52:24.677Z,55.50
2019-06-27T14:54:52.126Z,53.33
2019-06-27T14:57:20.040Z,56.67
2019-06-27T14:59:47.439Z,67.80
2019-06-27T15:02:15.528Z,53.03
2019-06-27T15:04:43.007Z,44.97
2019-06-27T15:07:11.269Z,59.37
2019-06-27T15:09:38.803Z,53.13
2019-06-27T15:12:07.045Z,48.30
2019-06-27T15:14:34.924Z,44.00
2019-06-27T15:17:02.420Z,41.88
2019-06-27T15:19:29.879Z,42.60
2019-06-27T15:21:57.474Z,53.10
2019-06-27T15:24:25.013Z,44.33
2019-06-27T15:26:52.784Z,43.50
2019-06-27T15:29:20.316Z,37.53
2019-06-27T15:31:48.079Z,53.35
2019-06-27T15:34:15.503Z,43.15
2019-06-27T15:36:44.187Z,45.33
2019-06-27T15:39:12.163Z,42.62
2019-06-27T15:41:39.336Z,55.67
2019-06-27T15:44:06.751Z,38.70
2019-06-27T15:46:34.209Z,49.03
2019-06-27T15:49:01.643Z,41.10
2019-06-27T15:51:29.388Z,47.53
2019-06-27T15:53:56.903Z,47.70
2019-06-27T15:56:25.162Z,49.30
2019-06-27T15:58:52.712Z,50.60
2019-06-27T16:01:20.299Z,42.97
2019-06-27T16:03:47.786Z,41.10
2019-06-27T16:06:15.333Z,42.08
2019-06-27T16:08:42.686Z,43.83
2019-06-27T16:11:10.328Z,38.35
2019-06-27T16:13:37.759Z,40.28
2019-06-27T16:16:05.200Z,38.55
2019-06-27T16:18:32.612Z,40.12
2019-06-27T16:21:00.896Z,35.60
2019-06-27T16:23:28.323Z,34.90
2019-06-27T16:25:56.107Z,46.85
2019-06-27T16:28:26.785Z,44.55
2019-06-27T16:30:51.289Z,38.33
2019-06-27T16:33:18.844Z,36.45
2019-06-27T16:35:46.524Z,38.97
2019-06-27T16:38:13.987Z,32.58
2019-06-27T16:40:41.612Z,32.13
2019-06-27T16:43:09.247Z,33.60
2019-06-27T16:45:40.299Z,39.88
2019-06-27T16:48:04.755Z,37.65
2019-06-27T16:50:32.299Z,32.72
2019-06-27T16:52:59.772Z,46.13
2019-06-27T16:55:27.379Z,46.15
2019-06-27T16:57:54.841Z,35.85
2019-06-27T17:00:22.515Z,26.58
2019-06-27T17:02:50.073Z,43.47
2019-06-27T17:05:18.257Z,34.30
2019-06-27T17:07:45.911Z,33.08
2019-06-27T17:10:14.191Z,36.15
2019-06-27T17:12:41.774Z,33.25
2019-06-27T17:15:09.376Z,29.30
2019-06-27T17:17:36.871Z,33.63
2019-06-27T17:20:06.317Z,33.15
2019-06-27T17:22:33.922Z,33.95
2019-06-27T17:25:01.485Z,29.25
2019-06-27T17:27:28.965Z,27.65
2019-06-27T17:29:56.468Z,29.02
2019-06-27T17:32:24.226Z,33.47
2019-06-27T17:34:52.027Z,30.55
2019-06-27T17:37:19.478Z,35.63
2019-06-27T17:39:46.952Z,28.95
2019-06-27T17:42:14.652Z,38.53
2019-06-27T17:44:42.662Z,36.28
2019-06-27T17:47:10.995Z,38.88
2019-06-27T17:49:38.392Z,41.97
2019-06-27T17:52:05.845Z,36.08
2019-06-27T17:54:33.719Z,40.85
2019-06-27T17:57:01.170Z,37.70
2019-06-27T17:59:28.622Z,43.92
2019-06-27T18:01:56.114Z,35.55
2019-06-27T18:04:23.547Z,40.10
2019-06-27T18:06:51.813Z,37.75
2019-06-27T18:09:19.269Z,34.05
2019-06-27T18:11:46.702Z,39.72
2019-06-27T18:14:14.376Z,27.95
2019-06-27T18:16:41.833Z,29.37
2019-06-27T18:19:09.562Z,29.70
2019-06-27T18:21:37.011Z,33.88
2019-06-27T18:24:04.490Z,38.25
2019-06-27T18:26:32.093Z,33.10
2019-06-27T18:29:00.055Z,45.20
2019-06-27T18:31:27.495Z,30.42
2019-06-27T18:33:55.263Z,38.83
2019-06-27T18:36:22.737Z,40.22
2019-06-27T18:38:50.522Z,40.95
2019-06-27T18:41:17.940Z,32.83
2019-06-27T18:43:45.546Z,47.42
2019-06-27T18:46:13.046Z,48.15
2019-06-27T18:48:40.648Z,46.65
2019-06-27T18:51:08.136Z,47.88
2019-06-27T18:53:35.906Z,56.92
2019-06-27T18:56:03.341Z,55.70
2019-06-27T18:58:31.503Z,47.42
2019-06-27T19:00:58.952Z,50.22
2019-06-27T19:03:26.579Z,45.67
2019-06-27T19:05:54.023Z,50.40
2019-06-27T19:08:21.422Z,46.60
2019-06-27T19:10:48.944Z,49.60
2019-06-27T19:13:16.434Z,58.83
2019-06-27T19:15:43.864Z,47.08
2019-06-27T19:18:16.801Z,49.20
2019-06-27T19:20:45.008Z,40.45
2019-06-27T19:23:26.894Z,36.83
2019-06-27T19:25:54.353Z,40.75
2019-06-27T19:28:21.839Z,51.47
2019-06-27T19:30:49.379Z,45.22
2019-06-27T19:33:16.835Z,42.50
2019-06-27T19:35:44.247Z,46.15
2019-06-27T19:38:11.689Z,43.40
2019-06-27T19:40:39.131Z,39.00
2019-06-27T19:43:06.852Z,47.13
2019-06-27T19:45:34.298Z,39.80
2019-06-27T19:48:01.958Z,47.95
2019-06-27T19:50:29.416Z,38.88
2019-06-27T19:52:56.830Z,35.53
2019-06-27T19:55:24.252Z,43.40
2019-06-27T19:57:52.856Z,37.85
2019-06-27T20:00:20.400Z,34.55
2019-06-27T20:02:48.120Z,44.67
2019-06-27T20:05:15.547Z,34.70
2019-06-27T20:07:43.524Z,33.20
2019-06-27T20:10:11.971Z,37.60
2019-06-27T20:12:38.782Z,34.30
2019-06-27T20:15:06.540Z,45.35
2019-06-27T20:17:34.133Z,38.47
2019-06-27T20:20:01.538Z,45.90
2019-06-27T20:22:29.187Z,50.30
2019-06-27T20:24:57.089Z,41.17
2019-06-27T20:27:24.723Z,41.20
2019-06-27T20:29:52.138Z,36.25
2019-06-27T20:32:19.592Z,45.17
2019-06-27T20:34:46.991Z,44.90
2019-06-27T20:37:14.518Z,37.30
2019-06-27T20:39:41.934Z,40.70
2019-06-27T20:42:09.920Z,41.83
2019-06-27T20:44:37.393Z,45.40
2019-06-27T20:47:04.801Z,35.13
2019-06-27T20:49:32.246Z,42.80
2019-06-27T20:52:00.151Z,40.25
2019-06-27T20:54:27.607Z,34.97
2019-06-27T20:56:55.270Z,36.53
2019-06-27T20:59:22.678Z,34.15
2019-06-27T21:01:50.221Z,34.93
2019-06-27T21:04:17.636Z,37.90
2019-06-27T21:06:45.099Z,27.50
2019-06-27T21:09:12.506Z,43.20
2019-06-27T21:11:40.487Z,33.47
2019-06-27T21:14:07.915Z,34.08
2019-06-27T21:16:35.702Z,41.03
2019-06-27T21:19:03.199Z,30.27
2019-06-27T21:21:31.173Z,39.72
2019-06-27T21:23:58.603Z,31.62
2019-06-27T21:26:26.023Z,35.30
2019-06-27T21:28:53.446Z,33.83
2019-06-27T21:31:20.978Z,32.58
2019-06-27T21:33:48.614Z,35.03
2019-06-27T21:36:16.247Z,36.78
2019-06-27T21:38:43.695Z,32.90
2019-06-27T21:41:11.123Z,28.77
2019-06-27T21:55:53.623Z,29.60
